Wellington, Texas
Current Conditions -  °F | °C
As of 7:53 AM on Friday 19 Dec 2014 (Local Time) from KCDS Reporting Station
Light Rain Light Rain  
Wind Chill: 34°   Ceiling: 600
Heat Index: 39°   Visibility: 7mi
Dew Point: 37°   Wind: 7mph
Humidity: 93%   Direction: 120°ESE
Pressure: 30.21"   Gusts: NA
Location:  34.86°N, 100.21°W
Report Text: KCDS 191353Z AUTO 12006KT 7SM -RA BKN006 OVC021 04/03 A3021 RMK AO2 RAE1255B12 CIG 003V010 SLP232 P0000 T00390028
Loading
Personal Weather Stations






























Interactive Weather Map New forecast layout! Learn more

10-Day Weather Forecast

Advertisements
Track Severe Weather on mobile